Impacts TAF Board
For situational awareness. Not to be used for flight planning purposes.
IDs:

KSAN - San Diego Intl Arpt, CA, US

Issued at 0521 UTC 23 Feb 2019
Updated at 0624 UTC 23 Feb 2019
Potential Impact None Slight Moderate High
Time0551Z 23/07Z 23/08Z 23/09Z 23/10Z 23/11Z 23/12Z 23/13Z 23/14Z 23/15Z 23/16Z 23/17Z 23/18Z 23/19Z>>
Type OBS PRVL PRVL PRVL PRVL PRVL PRVL PRVL PRVL PRVL PRVL PRVL PRVL PRVL
VIS 10 >6 >6 >6 >6 >6 >6 >6 >6 >6 >6 >6 >6 >6
CIG -- -- -- -- -- -- -- -- -- -- -- -- -- --
Cover CLR SKC SKC SKC SKC SKC SKC SKC SKC SKC SKC SKC SKC SKC
FltCat VFR VFR VFR VFR VFR VFR VFR VFR VFR VFR VFR VFR VFR VFR
WX -- -- -- -- -- -- -- -- -- -- -- -- -- --
WDir 70 VRB VRB VRB VRB VRB VRB VRB VRB VRB VRB VRB VRB VRB
WSpd 4 4 4 4 4 4 4 4 4 4 4 4 4 4
WGst -- -- -- -- -- -- -- -- -- -- -- -- -- --
Raw TAF
KSAN 230521Z 2306/2412 VRB04KT P6SM SKC
  FM232000 28008KT P6SM SKC
  FM240100 VRB04KT P6SM SKC


Raw METAR
KSAN 230551Z 07004KT 10SM CLR 11/01 A3021 RMK AO2 SLP229 T01110006 10150 20106 51019
KSAN 230451Z 00000KT 10SM CLR 11/02 A3019 RMK AO2 SLP223 T01110017
KSAN 230351Z 04003KT 10SM FEW200 12/02 A3017 RMK AO2 SLP217 T01170017

METAR Board
Radar Display
Forecast Discussion
For situational awareness. Not to be used for flight planning purposes.